createdAt,value
2023-02-14T00:01:30.423Z,17.23
2023-02-14T00:04:00.638Z,16.05
2023-02-14T00:06:27.835Z,17.30
2023-02-14T00:08:56.720Z,17.00
2023-02-14T00:11:23.276Z,15.88
2023-02-14T00:14:10.974Z,16.27
2023-02-14T00:16:37.571Z,14.45
2023-02-14T00:19:06.779Z,15.77
2023-02-14T00:21:36.192Z,15.75
2023-02-14T00:24:04.910Z,16.25
2023-02-14T00:26:31.527Z,15.15
2023-02-14T00:29:00.287Z,14.57
2023-02-14T00:31:29.531Z,14.60
2023-02-14T00:33:58.543Z,15.18
2023-02-14T00:36:27.391Z,15.52
2023-02-14T00:38:53.936Z,16.80
2023-02-14T00:41:23.333Z,16.35
2023-02-14T00:43:52.146Z,14.33
2023-02-14T00:46:23.362Z,15.48
2023-02-14T00:48:50.494Z,15.05
2023-02-14T00:51:22.604Z,14.93
2023-02-14T00:53:53.004Z,15.68
2023-02-14T00:56:20.536Z,14.77
2023-02-14T00:58:47.531Z,14.77
2023-02-14T01:01:17.886Z,14.80
2023-02-14T01:03:47.588Z,15.02
2023-02-14T01:06:14.198Z,15.00
2023-02-14T01:08:43.034Z,16.73
2023-02-14T01:11:16.035Z,15.55
2023-02-14T01:13:43.038Z,15.80
2023-02-14T01:16:12.846Z,14.35
2023-02-14T01:18:39.804Z,14.98
2023-02-14T01:21:16.463Z,14.67
2023-02-14T01:23:43.960Z,15.32
2023-02-14T01:26:12.395Z,15.55
2023-02-14T01:28:39.426Z,14.73
2023-02-14T01:31:11.893Z,15.68
2023-02-14T01:33:43.252Z,17.03
2023-02-14T01:36:22.773Z,16.20
2023-02-14T01:38:53.142Z,17.40
2023-02-14T01:41:25.947Z,17.85
2023-02-14T01:44:15.855Z,17.88
2023-02-14T01:46:45.030Z,15.73
2023-02-14T01:49:21.721Z,16.33
2023-02-14T01:52:04.309Z,15.98
2023-02-14T01:54:34.089Z,16.33
2023-02-14T01:57:06.670Z,15.52
2023-02-14T01:59:38.531Z,14.47
2023-02-14T02:02:08.546Z,15.93
2023-02-14T02:04:41.800Z,15.55
2023-02-14T02:07:17.665Z,15.00
2023-02-14T02:09:49.298Z,16.45
2023-02-14T02:12:18.485Z,15.93
2023-02-14T02:14:47.540Z,15.77
2023-02-14T02:17:30.620Z,17.25
2023-02-14T02:20:15.820Z,16.67
2023-02-14T02:23:09.456Z,15.93
2023-02-14T02:25:36.119Z,16.17
2023-02-14T02:28:17.637Z,15.68
2023-02-14T02:31:03.221Z,17.30
2023-02-14T02:33:32.627Z,17.20
2023-02-14T02:36:19.170Z,16.10
2023-02-14T02:38:55.349Z,15.83
2023-02-14T02:41:31.027Z,16.23
2023-02-14T02:44:15.904Z,17.23
2023-02-14T02:47:01.367Z,16.00
2023-02-14T02:50:11.846Z,16.27
2023-02-14T02:53:03.361Z,15.53
2023-02-14T02:56:01.898Z,15.85
2023-02-14T02:59:02.445Z,16.00
2023-02-14T03:01:41.433Z,15.85
2023-02-14T03:04:30.582Z,16.20
2023-02-14T03:06:59.123Z,15.20
2023-02-14T03:09:25.589Z,15.48
2023-02-14T03:12:18.278Z,15.48
2023-02-14T03:14:57.858Z,17.08
2023-02-14T03:17:36.376Z,15.23
2023-02-14T03:20:29.549Z,16.33
2023-02-14T03:23:11.171Z,16.20
2023-02-14T03:26:06.257Z,16.73
2023-02-14T03:28:47.481Z,17.52
2023-02-14T03:31:22.862Z,16.48
2023-02-14T03:34:17.581Z,17.23
2023-02-14T03:37:07.382Z,16.45
2023-02-14T03:39:33.835Z,16.20
2023-02-14T03:42:09.726Z,16.73
2023-02-14T03:44:39.763Z,18.27
2023-02-14T03:47:13.331Z,16.90
2023-02-14T03:49:48.774Z,18.70
2023-02-14T03:52:17.012Z,19.15
2023-02-14T03:54:46.648Z,17.05
2023-02-14T03:57:32.883Z,18.48
2023-02-14T04:00:02.619Z,17.40
2023-02-14T04:02:41.580Z,18.23
2023-02-14T04:05:15.878Z,17.95
2023-02-14T04:07:47.740Z,16.13
2023-02-14T04:10:20.124Z,18.02
2023-02-14T04:12:47.028Z,20.20
2023-02-14T04:15:14.680Z,18.35
2023-02-14T04:18:00.195Z,18.92
2023-02-14T04:20:27.842Z,17.88
2023-02-14T04:22:55.595Z,19.30
2023-02-14T04:25:23.865Z,18.87
2023-02-14T04:27:50.455Z,18.73
2023-02-14T04:30:18.153Z,19.45
2023-02-14T04:32:47.051Z,21.05
2023-02-14T04:35:13.800Z,20.52
2023-02-14T04:37:40.568Z,20.40
2023-02-14T04:40:10.487Z,21.35
2023-02-14T04:42:37.048Z,18.60
2023-02-14T04:45:06.214Z,20.40
2023-02-14T04:47:32.796Z,19.85
2023-02-14T04:50:01.587Z,17.90
2023-02-14T04:52:28.214Z,18.15
2023-02-14T04:54:57.039Z,18.65
2023-02-14T04:57:23.626Z,19.13
2023-02-14T04:59:52.405Z,21.05
2023-02-14T05:02:19.001Z,18.97
2023-02-14T05:04:50.346Z,18.23
2023-02-14T05:07:19.387Z,18.27
2023-02-14T05:09:50.832Z,17.63
2023-02-14T05:12:17.519Z,18.70
2023-02-14T05:14:46.858Z,18.00
2023-02-14T05:17:16.875Z,17.25
2023-02-14T05:19:43.431Z,18.55
2023-02-14T05:22:10.101Z,18.30
2023-02-14T05:24:36.682Z,17.80
2023-02-14T05:27:03.369Z,19.27
2023-02-14T05:29:32.135Z,17.55
2023-02-14T05:31:58.806Z,17.20
2023-02-14T05:34:25.427Z,14.80
2023-02-14T05:36:52.025Z,18.08
2023-02-14T05:39:18.610Z,18.37
2023-02-14T05:41:47.627Z,18.63
2023-02-14T05:44:19.181Z,19.90
2023-02-14T05:46:48.148Z,19.20
2023-02-14T05:49:14.804Z,18.77
2023-02-14T05:51:41.381Z,18.17
2023-02-14T05:54:10.024Z,19.38
2023-02-14T05:56:42.317Z,18.40
2023-02-14T05:59:08.902Z,18.65
2023-02-14T06:01:37.615Z,18.80
2023-02-14T06:04:07.215Z,20.40
2023-02-14T06:06:36.843Z,16.55
2023-02-14T06:09:03.574Z,18.38
2023-02-14T06:11:32.618Z,17.55
2023-02-14T06:13:59.174Z,19.48
2023-02-14T06:16:25.786Z,18.10
2023-02-14T06:18:52.328Z,17.73
2023-02-14T06:21:18.844Z,16.55
2023-02-14T06:23:45.384Z,16.67
2023-02-14T06:26:14.431Z,18.10
2023-02-14T06:28:41.075Z,16.40
2023-02-14T06:31:07.729Z,16.42
2023-02-14T06:33:36.516Z,17.35
2023-02-14T06:36:03.099Z,17.80
2023-02-14T06:38:31.820Z,17.42
2023-02-14T06:41:13.150Z,16.87
2023-02-14T06:43:39.731Z,11.93
2023-02-14T06:46:09.059Z,17.25
2023-02-14T06:48:38.076Z,16.55
2023-02-14T06:51:09.998Z,15.68
2023-02-14T06:53:39.031Z,16.57
2023-02-14T06:56:05.930Z,16.42
2023-02-14T06:58:40.290Z,18.23
2023-02-14T07:01:09.094Z,18.13
2023-02-14T07:03:35.660Z,17.17
2023-02-14T07:06:02.398Z,17.40
2023-02-14T07:08:28.977Z,17.45
2023-02-14T07:11:02.314Z,16.70
2023-02-14T07:13:32.176Z,17.02
2023-02-14T07:16:01.505Z,17.30
2023-02-14T07:18:31.635Z,17.20
2023-02-14T07:21:00.885Z,17.10
2023-02-14T07:23:30.074Z,19.73
2023-02-14T07:25:58.828Z,19.05
2023-02-14T07:28:25.354Z,16.92
2023-02-14T07:30:54.718Z,17.30
2023-02-14T07:33:21.298Z,18.02
2023-02-14T07:35:50.160Z,17.77
2023-02-14T07:38:16.666Z,18.88
2023-02-14T07:40:43.233Z,18.10
2023-02-14T07:43:10.167Z,17.20
2023-02-14T07:45:39.121Z,16.30
2023-02-14T07:48:05.965Z,18.00
2023-02-14T07:50:34.868Z,17.15
2023-02-14T07:53:01.464Z,17.10
2023-02-14T07:55:30.859Z,18.97
2023-02-14T07:57:59.512Z,18.08
2023-02-14T08:00:26.391Z,18.35
2023-02-14T08:02:53.203Z,18.02
2023-02-14T08:05:22.674Z,18.90
2023-02-14T08:07:51.475Z,17.97
2023-02-14T08:10:20.614Z,17.38
2023-02-14T08:12:59.126Z,19.38
2023-02-14T08:15:53.903Z,16.60
2023-02-14T08:18:23.182Z,16.77
2023-02-14T08:20:50.066Z,16.37
2023-02-14T08:23:18.740Z,18.40
2023-02-14T08:25:48.206Z,18.80
2023-02-14T08:28:22.205Z,18.00
2023-02-14T08:30:51.261Z,18.67
2023-02-14T08:33:23.373Z,18.10
2023-02-14T08:35:52.047Z,17.48
2023-02-14T08:38:22.098Z,18.42
2023-02-14T08:40:48.784Z,17.60
2023-02-14T08:43:18.119Z,18.45
2023-02-14T08:45:44.985Z,19.03
2023-02-14T08:48:18.078Z,18.70
2023-02-14T08:50:44.649Z,20.48
2023-02-14T08:53:17.104Z,18.15
2023-02-14T08:55:43.714Z,17.52
2023-02-14T08:58:13.234Z,16.73
2023-02-14T09:00:40.093Z,18.23
2023-02-14T09:03:10.638Z,17.70
2023-02-14T09:05:37.252Z,15.82
2023-02-14T09:08:03.957Z,16.38
2023-02-14T09:10:32.609Z,17.87
2023-02-14T09:13:04.336Z,17.60
2023-02-14T09:15:33.186Z,17.10
2023-02-14T09:18:01.899Z,17.63
2023-02-14T09:20:28.420Z,15.90
2023-02-14T09:22:58.750Z,16.83
2023-02-14T09:25:25.290Z,15.95
2023-02-14T09:27:57.158Z,16.65
2023-02-14T09:30:26.205Z,16.48
2023-02-14T09:32:55.072Z,16.05
2023-02-14T09:35:24.078Z,17.47
2023-02-14T09:37:52.730Z,16.50
2023-02-14T09:40:20.438Z,17.58
2023-02-14T09:43:18.463Z,16.75
2023-02-14T09:45:54.818Z,17.25
2023-02-14T09:48:34.023Z,17.87
2023-02-14T09:51:08.450Z,16.08
2023-02-14T09:53:42.174Z,16.42
2023-02-14T09:56:17.635Z,15.48
2023-02-14T09:59:14.828Z,17.55
2023-02-14T10:01:48.085Z,17.70
2023-02-14T10:04:40.767Z,16.65
2023-02-14T10:07:22.444Z,17.75
2023-02-14T10:10:02.754Z,17.25
2023-02-14T10:12:37.895Z,17.92
2023-02-14T10:15:23.961Z,17.07
2023-02-14T10:18:05.900Z,17.10
2023-02-14T10:20:35.250Z,18.92
2023-02-14T10:23:22.762Z,17.73
2023-02-14T10:25:54.083Z,16.63
2023-02-14T10:28:30.374Z,18.10
2023-02-14T10:31:04.402Z,18.02
2023-02-14T10:33:38.835Z,18.13
2023-02-14T10:36:18.713Z,18.80
2023-02-14T10:38:57.677Z,19.00
2023-02-14T10:41:42.258Z,16.93
2023-02-14T10:44:24.023Z,16.58
2023-02-14T10:46:59.527Z,21.23
2023-02-14T10:49:44.028Z,20.65
2023-02-14T10:52:22.844Z,23.15
2023-02-14T10:54:58.215Z,21.70
2023-02-14T10:57:51.051Z,19.30
2023-02-14T11:00:25.813Z,23.40
2023-02-14T11:03:00.088Z,23.15
2023-02-14T11:05:31.663Z,22.83
2023-02-14T11:08:01.977Z,23.63
2023-02-14T11:10:35.734Z,22.05
2023-02-14T11:13:02.312Z,23.13
2023-02-14T11:15:42.259Z,24.77
2023-02-14T11:18:36.108Z,21.90
2023-02-14T11:21:17.775Z,23.63
2023-02-14T11:23:48.894Z,23.23
2023-02-14T11:26:34.949Z,23.83
2023-02-14T11:29:07.166Z,24.58
2023-02-14T11:31:36.706Z,24.10
2023-02-14T11:34:20.857Z,24.40
2023-02-14T11:36:49.862Z,23.73
2023-02-14T11:39:31.284Z,24.55
2023-02-14T11:42:01.110Z,24.70
2023-02-14T11:44:29.911Z,24.60
2023-02-14T11:47:18.096Z,24.07
2023-02-14T11:50:17.839Z,23.95
2023-02-14T11:52:56.690Z,24.50
2023-02-14T11:55:26.077Z,22.50
2023-02-14T11:57:57.044Z,23.33
2023-02-14T12:00:27.165Z,24.23
2023-02-14T12:02:57.939Z,25.48
2023-02-14T12:05:35.559Z,22.08
2023-02-14T12:08:08.075Z,23.15
2023-02-14T12:10:42.050Z,23.75
2023-02-14T12:13:08.605Z,22.63
2023-02-14T12:15:44.067Z,25.65
2023-02-14T12:18:29.226Z,22.92
2023-02-14T12:20:59.881Z,22.50
2023-02-14T12:23:38.815Z,25.50
2023-02-14T12:26:25.531Z,25.40
2023-02-14T12:29:14.319Z,24.70
2023-02-14T12:31:43.125Z,24.23
2023-02-14T12:34:13.263Z,24.20
2023-02-14T12:37:06.854Z,23.35
2023-02-14T12:40:05.784Z,23.70
2023-02-14T12:43:04.544Z,25.88
2023-02-14T12:46:08.754Z,25.88
2023-02-14T12:48:51.700Z,25.20
2023-02-14T12:51:34.647Z,25.45
2023-02-14T12:54:25.910Z,24.43
2023-02-14T12:57:08.299Z,24.38
2023-02-14T13:00:05.884Z,22.75
2023-02-14T13:02:41.427Z,25.55
2023-02-14T13:05:31.804Z,25.60
2023-02-14T13:08:23.808Z,24.23
2023-02-14T13:11:02.068Z,22.88
2023-02-14T13:13:34.882Z,25.35
2023-02-14T13:16:32.385Z,23.30
2023-02-14T13:19:14.403Z,24.58
2023-02-14T13:21:45.294Z,22.53
2023-02-14T13:24:25.632Z,22.38
2023-02-14T13:26:56.489Z,23.15
2023-02-14T13:29:27.431Z,24.40
2023-02-14T13:31:58.803Z,23.35
2023-02-14T13:34:44.384Z,24.40
2023-02-14T13:37:15.934Z,21.75
2023-02-14T13:39:48.991Z,23.02
2023-02-14T13:42:50.714Z,23.33
2023-02-14T13:45:29.518Z,22.58
2023-02-14T13:48:19.722Z,21.93
2023-02-14T13:51:02.438Z,23.35
2023-02-14T13:53:32.093Z,24.25
2023-02-14T13:56:01.649Z,21.92
2023-02-14T13:58:30.944Z,23.00
2023-02-14T14:00:57.721Z,23.40
2023-02-14T14:03:27.744Z,24.30
2023-02-14T14:06:10.928Z,23.17
2023-02-14T14:08:37.640Z,22.50
2023-02-14T14:11:11.640Z,21.35
2023-02-14T14:13:43.170Z,22.67
2023-02-14T14:16:28.166Z,19.88
2023-02-14T14:18:58.764Z,18.05
2023-02-14T14:21:31.766Z,17.90
2023-02-14T14:24:20.604Z,19.70
2023-02-14T14:26:48.866Z,16.57
2023-02-14T14:29:23.402Z,16.80
2023-02-14T14:31:55.841Z,17.20
2023-02-14T14:34:29.945Z,15.88
2023-02-14T14:37:10.757Z,15.02
2023-02-14T14:39:40.590Z,15.50
2023-02-14T14:42:15.214Z,15.13
2023-02-14T14:45:02.022Z,15.75
2023-02-14T14:47:37.642Z,15.85
2023-02-14T14:50:07.726Z,15.18
2023-02-14T14:52:41.336Z,14.87
2023-02-14T14:55:19.721Z,15.02
2023-02-14T14:58:03.796Z,14.63
2023-02-14T15:00:37.245Z,15.40
2023-02-14T15:03:14.796Z,16.65
2023-02-14T15:05:47.005Z,17.67
2023-02-14T15:08:23.334Z,16.60
2023-02-14T15:10:58.686Z,14.27
2023-02-14T15:13:50.618Z,17.58
2023-02-14T15:16:21.493Z,17.23
2023-02-14T15:18:49.570Z,17.67
2023-02-14T15:21:16.896Z,22.10
2023-02-14T15:23:44.126Z,24.80
2023-02-14T15:26:18.075Z,26.67
2023-02-14T15:28:54.053Z,26.73
2023-02-14T15:31:20.925Z,25.60
2023-02-14T15:33:50.276Z,25.77
2023-02-14T15:36:21.172Z,23.85
2023-02-14T15:38:51.038Z,23.25
2023-02-14T15:41:20.086Z,22.48
2023-02-14T15:43:54.090Z,22.97
2023-02-14T15:46:33.240Z,23.55
2023-02-14T15:49:01.397Z,23.38
2023-02-14T15:51:37.437Z,22.85
2023-02-14T15:54:18.403Z,23.58
2023-02-14T15:56:49.376Z,24.20
2023-02-14T15:59:22.796Z,24.63
2023-02-14T16:01:53.895Z,23.25
2023-02-14T16:04:26.085Z,24.40
2023-02-14T16:07:20.572Z,21.90
2023-02-14T16:09:48.368Z,21.63
2023-02-14T16:12:31.431Z,22.23
2023-02-14T16:15:20.545Z,22.05
2023-02-14T16:17:50.923Z,21.42
2023-02-14T16:20:23.700Z,20.83
2023-02-14T16:22:50.896Z,18.33
2023-02-14T16:25:22.994Z,17.33
2023-02-14T16:27:54.377Z,17.58
2023-02-14T16:30:23.811Z,16.65
2023-02-14T16:32:52.596Z,16.88
2023-02-14T16:35:21.770Z,15.70
2023-02-14T16:37:51.679Z,14.88
2023-02-14T16:40:20.950Z,16.20
2023-02-14T16:42:49.976Z,16.00
2023-02-14T16:45:18.230Z,16.08
2023-02-14T16:47:49.178Z,17.30
2023-02-14T16:50:16.219Z,18.05
2023-02-14T16:52:46.627Z,15.90
2023-02-14T16:55:20.244Z,16.80
2023-02-14T16:57:53.366Z,17.35
2023-02-14T17:00:22.862Z,17.20
2023-02-14T17:02:49.958Z,15.90
2023-02-14T17:05:19.314Z,15.13
2023-02-14T17:07:45.831Z,15.57
2023-02-14T17:10:18.360Z,16.23
2023-02-14T17:12:53.160Z,14.63
2023-02-14T17:15:26.532Z,16.55
2023-02-14T17:17:59.393Z,16.98
2023-02-14T17:20:31.015Z,15.85
2023-02-14T17:22:58.309Z,15.18
2023-02-14T17:25:27.389Z,15.83
2023-02-14T17:27:56.513Z,15.77
2023-02-14T17:30:26.175Z,15.88
2023-02-14T17:32:52.706Z,16.33
2023-02-14T17:35:22.016Z,15.18
2023-02-14T17:37:48.555Z,15.77
2023-02-14T17:40:17.613Z,18.10
2023-02-14T17:42:44.975Z,18.67
2023-02-14T17:45:14.049Z,20.45
2023-02-14T17:47:45.208Z,22.20
2023-02-14T17:50:13.191Z,22.90
2023-02-14T17:52:42.035Z,23.38
2023-02-14T17:55:11.430Z,24.10
2023-02-14T17:57:40.865Z,24.15
2023-02-14T18:00:11.818Z,23.40
2023-02-14T18:02:38.845Z,26.03
2023-02-14T18:05:08.189Z,24.50
2023-02-14T18:07:38.189Z,22.95
2023-02-14T18:10:05.942Z,17.88
2023-02-14T18:12:32.825Z,23.55
2023-02-14T18:14:59.618Z,23.43
2023-02-14T18:17:28.657Z,23.52
2023-02-14T18:19:57.420Z,22.45
2023-02-14T18:22:24.846Z,22.60
2023-02-14T18:24:51.416Z,23.90
2023-02-14T18:27:18.001Z,21.87
2023-02-14T18:29:44.605Z,20.83
2023-02-14T18:32:16.046Z,22.02
2023-02-14T18:34:42.575Z,22.40
2023-02-14T18:37:15.187Z,18.10
2023-02-14T18:39:41.843Z,19.80
2023-02-14T18:42:08.595Z,20.38
2023-02-14T18:44:35.485Z,21.40
2023-02-14T18:47:06.462Z,17.42
2023-02-14T18:49:35.299Z,18.55
2023-02-14T18:52:01.941Z,18.67
2023-02-14T18:54:32.079Z,19.67
2023-02-14T18:56:58.688Z,18.00
2023-02-14T18:59:25.203Z,17.15
2023-02-14T19:01:54.541Z,18.95
2023-02-14T19:04:24.099Z,17.87
2023-02-14T19:06:53.262Z,17.92
2023-02-14T19:09:22.358Z,17.33
2023-02-14T19:11:51.278Z,16.65
2023-02-14T19:14:18.367Z,15.52
2023-02-14T19:16:51.947Z,16.83
2023-02-14T19:19:22.818Z,19.80
2023-02-14T19:21:53.077Z,17.13
2023-02-14T19:24:20.240Z,15.75
2023-02-14T19:26:47.262Z,16.85
2023-02-14T19:29:18.257Z,16.83
2023-02-14T19:31:48.753Z,17.08
2023-02-14T19:34:29.679Z,19.90
2023-02-14T19:36:58.856Z,19.88
2023-02-14T19:39:25.704Z,17.13
2023-02-14T19:41:52.363Z,17.03
2023-02-14T19:44:21.083Z,16.83
2023-02-14T19:46:51.040Z,15.90
2023-02-14T19:49:19.776Z,15.82
2023-02-14T19:51:52.342Z,15.15
2023-02-14T19:54:25.629Z,16.00
2023-02-14T19:56:53.872Z,15.75
2023-02-14T19:59:21.786Z,16.83
2023-02-14T20:01:56.447Z,16.08
2023-02-14T20:04:28.545Z,15.63
2023-02-14T20:06:56.119Z,16.60
2023-02-14T20:09:23.592Z,15.43
2023-02-14T20:11:57.792Z,15.05
2023-02-14T20:14:30.511Z,15.43
2023-02-14T20:17:00.316Z,15.80
2023-02-14T20:19:35.704Z,14.43
2023-02-14T20:22:04.764Z,14.85
2023-02-14T20:24:32.463Z,14.65
2023-02-14T20:27:00.469Z,15.73
2023-02-14T20:29:27.336Z,14.80
2023-02-14T20:32:03.313Z,14.13
2023-02-14T20:34:29.952Z,14.20
2023-02-14T20:36:59.313Z,15.40
2023-02-14T20:39:36.576Z,14.00
2023-02-14T20:42:04.222Z,14.52
2023-02-14T20:44:30.818Z,13.17
2023-02-14T20:46:57.593Z,13.07
2023-02-14T20:49:26.041Z,14.60
2023-02-14T20:51:56.025Z,13.63
2023-02-14T20:54:25.680Z,14.27
2023-02-14T20:56:55.136Z,13.73
2023-02-14T20:59:27.150Z,14.63
2023-02-14T21:01:55.372Z,13.13
2023-02-14T21:04:22.963Z,13.13
2023-02-14T21:06:49.612Z,13.30
2023-02-14T21:09:18.510Z,12.70
2023-02-14T21:11:45.159Z,13.40
2023-02-14T21:14:14.288Z,12.20
2023-02-14T21:16:43.220Z,11.13
2023-02-14T21:19:09.845Z,11.75
2023-02-14T21:21:39.710Z,12.20
2023-02-14T21:24:14.680Z,12.80
2023-02-14T21:26:41.741Z,11.88
2023-02-14T21:29:11.342Z,11.98
2023-02-14T21:31:38.654Z,11.18
2023-02-14T21:34:08.124Z,11.70
2023-02-14T21:36:37.956Z,10.82
2023-02-14T21:39:07.683Z,10.43
2023-02-14T21:41:35.230Z,10.82
2023-02-14T21:44:07.655Z,11.38
2023-02-14T21:46:38.872Z,11.07
2023-02-14T21:49:24.580Z,11.13
2023-02-14T21:51:51.300Z,11.73
2023-02-14T21:54:18.000Z,11.75
2023-02-14T21:56:44.817Z,11.65
2023-02-14T21:59:11.647Z,11.43
2023-02-14T22:01:42.528Z,11.23
2023-02-14T22:04:11.431Z,11.18
2023-02-14T22:06:40.281Z,11.25
2023-02-14T22:09:07.506Z,11.55
2023-02-14T22:11:35.305Z,11.40
2023-02-14T22:14:04.665Z,10.48
2023-02-14T22:16:31.355Z,10.65
2023-02-14T22:19:00.236Z,10.50
2023-02-14T22:21:33.354Z,9.65
2023-02-14T22:24:01.352Z,9.63
2023-02-14T22:26:34.649Z,10.30
2023-02-14T22:29:02.496Z,8.82
2023-02-14T22:31:33.435Z,9.35
2023-02-14T22:34:03.079Z,8.82
2023-02-14T22:36:31.836Z,9.60
2023-02-14T22:39:00.715Z,8.93
2023-02-14T22:41:30.065Z,9.43
2023-02-14T22:43:58.903Z,10.02
2023-02-14T22:46:28.082Z,8.73
2023-02-14T22:48:56.262Z,8.37
2023-02-14T22:51:24.201Z,8.38
2023-02-14T22:53:53.345Z,8.68
2023-02-14T22:56:25.601Z,9.70
2023-02-14T22:58:56.901Z,9.02
2023-02-14T23:01:31.278Z,9.23
2023-02-14T23:04:00.150Z,8.30
2023-02-14T23:06:33.701Z,8.75
2023-02-14T23:09:05.993Z,9.23
2023-02-14T23:11:36.523Z,10.00
2023-02-14T23:14:24.408Z,9.17
2023-02-14T23:17:10.210Z,8.80
2023-02-14T23:19:56.052Z,9.60
2023-02-14T23:22:34.650Z,8.55
2023-02-14T23:25:07.636Z,8.27
2023-02-14T23:27:43.525Z,9.50
2023-02-14T23:30:15.113Z,8.27
2023-02-14T23:32:42.469Z,8.38
2023-02-14T23:35:12.095Z,8.60
2023-02-14T23:37:41.782Z,8.60
2023-02-14T23:40:11.772Z,8.67
2023-02-14T23:42:38.319Z,7.88
2023-02-14T23:45:24.180Z,8.43
2023-02-14T23:47:52.848Z,8.07
2023-02-14T23:50:19.387Z,8.48
2023-02-14T23:52:48.886Z,8.93
2023-02-14T23:55:15.402Z,9.18
2023-02-14T23:57:42.017Z,9.07
